TNCCTNCA

Guest
Details From TNCC - Curacao Hato
To TNCA - REINA BEATRIX INTL
Flight Number -
Tags generated
Created
Modified
Stats Distance 65 nm / 120 km
Max Altitude 3,000 ft / 914 m
Waypoints 4
Social Downloads 3
Likes 0
Share VATSIM

Download

Looking for another format? Having issues loading an existing format? Contact us
Advertisement - Login to hide

Notes

Basic altitude profile: - Ascent Rate: 2000ft/min - Ascent Speed: 250kts - Cruise Altitude: 9000ft - Cruise Speed: 250kts - Descent Rate: 2000ft/min - Descent Speed: 250kts Options: - Use NATs: yes - Use PACOTS: yes - Use low airways: yes - Use high airways: yes

Route

TNCC PJG A574 ABA TNCA

ID Type Via Altitude Latitude Longitude Leg Dist Tot Dist Heading (true) Name
O TNCC APT - 0 ft / 0 m 12.18885˚ -68.95980˚ - 0 nm - Curacao Hato
PJG VOR - 1,000 ft / 305 m 12.20028˚ -69.01000˚ 3 nm 3 nm 283° / 283° CURACAO VOR-DME
ABA VOR A574 (AWY-LO) 3,000 ft / 914 m 12.50567˚ -69.94311˚ 57 nm 60 nm 289° / 288° ARUBA VOR-DME
O TNCA APT - 0 ft / 0 m 12.50139˚ -70.01522˚ 4 nm 64 nm 267° / 267° REINA BEATRIX INTL

Altitude Profile

Advertisement - Login to hide

TNCC

Details ICAO TNCC (CUR)
Name Curacao Hato
Region Caribbean Netherlands, Aruba, Curaçao, Sint Maarten
Timezone Unknown (UTC+0.0)
Stats Elevation 29 ft / 9 m (AMSL)
Location 12.188853° -68.959803°
Runways 1
Magnetic Variation 11.331° W

METAR

TNCC 160300Z 09013KT 9999 FEW018 27/22 Q1014 NOSIG

Decode

TAF

Not found

Departure Runways

ID Width Length Bearing (true) Bearing (mag) Surface Threshold Offset Overrun Length
11 197 ft / 60 m 11,197 ft / 3,413 m 102.24° 113.57° Asphalt 300 ft / 91 m 0 ft / 0 m
29 197 ft / 60 m 11,197 ft / 3,413 m 282.24° 293.57° Asphalt 300 ft / 91 m 200 ft / 61 m

TNCA

Details ICAO TNCA (AUA)
Name REINA BEATRIX INTL
Region Caribbean Netherlands, Aruba, Curaçao, Sint Maarten
Timezone America/Aruba (UTC-4.0)
Stats Elevation 60 ft / 18 m (AMSL)
Location 12.501389° -70.015220°
Runways 1
Magnetic Variation 10.771° W

METAR

TNCA 160300Z 08013KT 9999 FEW018 27/23 Q1014 A2994 NOSIG

Decode

TAF

Not found

Destination Runways

ID Width Length Bearing (true) Bearing (mag) Surface Threshold Offset Overrun Length
11 148 ft / 45 m 8,998 ft / 2,743 m 104.08° 114.85° Asphalt 0 ft / 0 m 184 ft / 56 m
29 148 ft / 45 m 8,998 ft / 2,743 m 284.09° 294.86° Asphalt 0 ft / 0 m 184 ft / 56 m

Approach Navaids

Runway Type Ident Frequency Range Bearing (true) Bearing (mag) Slope Elevation
11 Localiser IBE 108.70 MHz 18 nm / 33 km 103.91° 114.68° - 58 ft / 18 m (AMSL)
11 Glidescope IBE 108.70 MHz 10 nm / 19 km 104.08° 114.85° 2.98° 10 ft / 3 m (AMSL)
11 DME IBE 108.70 MHz 18 nm / 33 km - - - 58 ft / 18 m (AMSL)

Popular Alternatives